createdAt,value
2022-07-30T00:01:55.374Z,100978.91
2022-07-30T00:04:22.455Z,100978.22
2022-07-30T00:06:49.579Z,100976.69
2022-07-30T00:09:16.840Z,100976.69
2022-07-30T00:11:44.103Z,100969.88
2022-07-30T00:14:11.140Z,100969.72
2022-07-30T00:16:39.395Z,100974.81
2022-07-30T00:19:07.014Z,100976.19
2022-07-30T00:21:38.650Z,100973.31
2022-07-30T00:24:08.682Z,100968.84
2022-07-30T00:26:35.978Z,100970.25
2022-07-30T00:29:05.159Z,100975.16
2022-07-30T00:31:32.825Z,100971.41
2022-07-30T00:33:59.974Z,100979.41
2022-07-30T00:36:27.827Z,100979.75
2022-07-30T00:38:55.043Z,100972.78
2022-07-30T00:41:22.565Z,100969.69
2022-07-30T00:43:49.688Z,100973.81
2022-07-30T00:46:16.912Z,100979.78
2022-07-30T00:48:45.392Z,100974.81
2022-07-30T00:51:12.563Z,100979.09
2022-07-30T00:53:40.762Z,100979.25
2022-07-30T00:56:07.976Z,100976.53
2022-07-30T00:58:35.017Z,100984.88
2022-07-30T01:01:02.124Z,100983.16
2022-07-30T01:03:29.048Z,100993.22
2022-07-30T01:05:56.052Z,100981.47
2022-07-30T01:08:23.084Z,100983.53
2022-07-30T01:10:51.952Z,100983.53
2022-07-30T01:13:18.944Z,100975.34
2022-07-30T01:15:46.120Z,100978.94
2022-07-30T01:18:14.897Z,100979.09
2022-07-30T01:21:01.884Z,100975.00
2022-07-30T01:23:38.541Z,100979.09
2022-07-30T01:26:12.672Z,100977.03
2022-07-30T01:28:45.920Z,100972.56
2022-07-30T01:31:15.298Z,100971.91
2022-07-30T01:33:46.092Z,100973.78
2022-07-30T01:36:16.322Z,100965.25
2022-07-30T01:38:46.353Z,100959.13
2022-07-30T01:41:15.031Z,100962.53
2022-07-30T01:43:44.297Z,100952.31
2022-07-30T01:46:14.265Z,100948.38
2022-07-30T01:48:44.362Z,100949.41
2022-07-30T01:51:13.346Z,100949.56
2022-07-30T01:53:44.934Z,100946.84
2022-07-30T01:56:16.878Z,100948.56
2022-07-30T01:58:49.176Z,100955.53
2022-07-30T02:01:21.133Z,100952.78
2022-07-30T02:03:48.695Z,100951.94
2022-07-30T02:06:25.053Z,100964.41
2022-07-30T02:08:58.860Z,100959.28
2022-07-30T02:11:46.415Z,100960.97
2022-07-30T02:14:29.236Z,100960.13
2022-07-30T02:16:59.180Z,100959.28
2022-07-30T02:19:36.836Z,100958.25
2022-07-30T02:22:13.620Z,100954.69
2022-07-30T02:24:44.368Z,100963.38
2022-07-30T02:27:24.679Z,100955.34
2022-07-30T02:29:53.476Z,100956.38
2022-07-30T02:32:23.844Z,100959.94
2022-07-30T02:35:02.150Z,100962.88
2022-07-30T02:37:43.431Z,100960.44
2022-07-30T02:40:18.445Z,100964.03
2022-07-30T02:42:48.934Z,100958.91
2022-07-30T02:45:20.923Z,100966.06
2022-07-30T02:47:54.026Z,100959.94
2022-07-30T02:50:24.664Z,100952.25
2022-07-30T02:52:54.691Z,100958.03
2022-07-30T02:55:24.113Z,100954.78
2022-07-30T02:57:53.662Z,100948.50
2022-07-30T03:00:22.162Z,100953.44
2022-07-30T03:02:56.706Z,100949.69
2022-07-30T03:05:25.198Z,100955.47
2022-07-30T03:07:56.958Z,100950.38
2022-07-30T03:10:26.045Z,100938.63
2022-07-30T03:12:54.079Z,100946.66
2022-07-30T03:15:21.353Z,100948.34
2022-07-30T03:17:53.998Z,100938.47
2022-07-30T03:20:30.391Z,100933.88
2022-07-30T03:22:59.881Z,100935.56
2022-07-30T03:25:31.064Z,100937.44
2022-07-30T03:28:02.147Z,100940.31
2022-07-30T03:30:29.991Z,100934.88
2022-07-30T03:32:58.066Z,100938.47
2022-07-30T03:35:26.446Z,100936.59
2022-07-30T03:37:55.988Z,100933.88
2022-07-30T03:40:24.110Z,100934.72
2022-07-30T03:42:52.899Z,100934.53
2022-07-30T03:45:23.943Z,100933.34
2022-07-30T03:47:55.789Z,100927.22
2022-07-30T03:50:23.905Z,100927.38
2022-07-30T03:52:51.797Z,100928.41
2022-07-30T03:55:21.221Z,100929.41
2022-07-30T03:57:49.046Z,100927.56
2022-07-30T04:00:18.280Z,100927.56
2022-07-30T04:02:50.675Z,100935.91
2022-07-30T04:05:20.528Z,100934.88
2022-07-30T04:07:49.947Z,100936.59
2022-07-30T04:10:20.507Z,100941.19
2022-07-30T04:13:00.259Z,100942.19
2022-07-30T04:16:40.169Z,100944.91
2022-07-30T04:18:20.026Z,100948.84
2022-07-30T04:20:49.307Z,100954.31
2022-07-30T04:23:16.845Z,100949.19
2022-07-30T04:25:45.042Z,100951.03
2022-07-30T04:28:13.981Z,100952.91
2022-07-30T04:30:41.741Z,100956.47
2022-07-30T04:33:09.473Z,100955.63
2022-07-30T04:35:55.445Z,100961.09
2022-07-30T04:38:29.339Z,100961.25
2022-07-30T04:40:56.662Z,100968.91
2022-07-30T04:43:26.836Z,100959.19
2022-07-30T04:45:54.021Z,100964.66
2022-07-30T04:48:21.169Z,100972.13
2022-07-30T04:50:54.089Z,100975.03
2022-07-30T04:53:22.673Z,100979.22
2022-07-30T04:55:56.589Z,100980.25
2022-07-30T04:58:30.508Z,100976.84
2022-07-30T05:00:59.600Z,100981.25
2022-07-30T05:03:32.157Z,100983.53
2022-07-30T05:06:00.820Z,100985.41
2022-07-30T05:08:31.880Z,100968.34
2022-07-30T05:11:03.139Z,100979.97
2022-07-30T05:13:34.279Z,100976.72
2022-07-30T05:16:07.515Z,100976.91
2022-07-30T05:18:35.792Z,100984.75
2022-07-30T05:21:03.197Z,100983.03
2022-07-30T05:23:36.576Z,100979.63
2022-07-30T05:26:11.323Z,100989.31
2022-07-30T05:28:52.134Z,100983.53
2022-07-30T05:31:26.037Z,101000.78
2022-07-30T05:34:03.026Z,101003.31
2022-07-30T05:36:37.292Z,101005.00
2022-07-30T05:39:04.357Z,101001.78
2022-07-30T05:41:51.599Z,101006.03
2022-07-30T05:44:40.990Z,101008.59
2022-07-30T05:47:08.354Z,100998.22
2022-07-30T05:49:35.765Z,101004.03
2022-07-30T05:52:09.128Z,101000.28
2022-07-30T05:54:36.237Z,100997.53
2022-07-30T05:57:12.331Z,100994.81
2022-07-30T05:59:40.958Z,100992.97
2022-07-30T06:02:09.728Z,100999.09
2022-07-30T06:04:52.405Z,100998.75
2022-07-30T06:07:19.712Z,101003.00
2022-07-30T06:09:47.057Z,101001.63
2022-07-30T06:12:14.565Z,100999.75
2022-07-30T06:14:42.304Z,101005.91
2022-07-30T06:17:13.753Z,101020.22
2022-07-30T06:20:04.786Z,101027.50
2022-07-30T06:22:42.016Z,101031.78
2022-07-30T06:25:18.507Z,101034.72
2022-07-30T06:27:45.997Z,101034.88
2022-07-30T06:30:13.880Z,101039.50
2022-07-30T06:32:43.573Z,101029.94
2022-07-30T06:35:11.634Z,101044.44
2022-07-30T06:38:00.585Z,101042.75
2022-07-30T06:40:28.733Z,101052.66
2022-07-30T06:43:06.105Z,101043.44
2022-07-30T06:45:49.171Z,101055.69
2022-07-30T06:48:32.781Z,101053.63
2022-07-30T06:51:02.201Z,101055.03
2022-07-30T06:53:29.832Z,101054.69
2022-07-30T06:56:13.290Z,101051.63
2022-07-30T06:58:47.800Z,101053.16
2022-07-30T07:01:54.131Z,101045.88
2022-07-30T07:04:21.888Z,101055.59
2022-07-30T07:06:50.440Z,101056.94
2022-07-30T07:09:27.086Z,101055.06
2022-07-30T07:12:14.315Z,101061.59
2022-07-30T07:14:44.704Z,101062.63
2022-07-30T07:17:13.392Z,101057.53
2022-07-30T07:20:18.281Z,101059.03
2022-07-30T07:22:51.200Z,101054.78
2022-07-30T07:25:19.461Z,101062.28
2022-07-30T07:28:10.976Z,101057.00
2022-07-30T07:30:35.399Z,101054.44
2022-07-30T07:33:04.536Z,101052.22
2022-07-30T07:35:31.934Z,101059.38
2022-07-30T07:38:13.688Z,101060.94
2022-07-30T07:40:41.638Z,101060.25
2022-07-30T07:43:09.290Z,101057.34
2022-07-30T07:45:38.288Z,101057.69
2022-07-30T07:48:08.935Z,101065.56
2022-07-30T07:50:45.903Z,101061.94
2022-07-30T07:53:22.679Z,101062.13
2022-07-30T07:55:49.912Z,101072.34
2022-07-30T07:58:25.365Z,101070.81
2022-07-30T08:00:55.375Z,101068.47
2022-07-30T08:03:28.755Z,101068.78
2022-07-30T08:06:05.664Z,101066.88
2022-07-30T08:09:09.441Z,101068.44
2022-07-30T08:12:16.108Z,101064.00
2022-07-30T08:15:05.617Z,101078.66
2022-07-30T08:17:52.542Z,101078.16
2022-07-30T08:20:33.235Z,101069.78
2022-07-30T08:23:00.946Z,101079.66
2022-07-30T08:25:29.013Z,101068.59
2022-07-30T08:27:57.336Z,101065.66
2022-07-30T08:30:26.022Z,101067.69
2022-07-30T08:32:54.713Z,101066.66
2022-07-30T08:35:23.275Z,101073.09
2022-07-30T08:37:51.789Z,101067.66
2022-07-30T08:40:27.356Z,101074.78
2022-07-30T08:43:06.265Z,101074.44
2022-07-30T08:45:35.504Z,101075.66
2022-07-30T08:48:33.054Z,101070.81
2022-07-30T08:51:01.641Z,101069.44
2022-07-30T08:53:36.607Z,101065.00
2022-07-30T08:56:07.161Z,101077.41
2022-07-30T08:58:35.777Z,101076.38
2022-07-30T09:01:06.706Z,101077.06
2022-07-30T09:03:35.384Z,101076.69
2022-07-30T09:06:05.455Z,101077.88
2022-07-30T09:08:33.495Z,101077.66
2022-07-30T09:11:04.209Z,101079.47
2022-07-30T09:13:35.380Z,101079.09
2022-07-30T09:16:04.864Z,101073.09
2022-07-30T09:18:39.629Z,101080.75
2022-07-30T09:21:26.760Z,101077.72
2022-07-30T09:24:14.780Z,101062.13
2022-07-30T09:27:07.473Z,101070.13
2022-07-30T09:29:59.877Z,101068.22
2022-07-30T09:32:51.658Z,101064.38
2022-07-30T09:35:38.533Z,101069.13
2022-07-30T09:38:26.434Z,101057.81
2022-07-30T09:40:57.274Z,101064.25
2022-07-30T09:43:49.251Z,101069.81
2022-07-30T09:46:41.146Z,101068.53
2022-07-30T09:49:15.878Z,101065.03
2022-07-30T09:51:54.364Z,101062.28
2022-07-30T09:54:27.925Z,101058.22
2022-07-30T09:57:25.675Z,101061.91
2022-07-30T10:00:19.206Z,101049.88
2022-07-30T10:03:33.870Z,101054.44
2022-07-30T10:06:35.380Z,101058.63
2022-07-30T10:09:37.555Z,101054.72
2022-07-30T10:12:11.333Z,101060.28
2022-07-30T10:14:46.502Z,101055.00
2022-07-30T10:17:17.421Z,101058.31
2022-07-30T10:20:09.321Z,101055.09
2022-07-30T10:22:56.718Z,101065.41
2022-07-30T10:25:27.795Z,101049.63
2022-07-30T10:28:03.268Z,101050.28
2022-07-30T10:30:32.988Z,101046.50
2022-07-30T10:33:01.531Z,101046.31
2022-07-30T10:35:34.603Z,101042.00
2022-07-30T10:38:13.686Z,101036.03
2022-07-30T10:40:48.913Z,101027.94
2022-07-30T10:43:52.860Z,101026.72
2022-07-30T10:46:44.606Z,101021.78
2022-07-30T10:49:17.599Z,101030.06
2022-07-30T10:51:52.482Z,101025.88
2022-07-30T10:54:36.564Z,101035.28
2022-07-30T10:57:22.715Z,101031.09
2022-07-30T10:59:50.588Z,101028.75
2022-07-30T11:02:19.886Z,101027.28
2022-07-30T11:04:47.892Z,101025.09
2022-07-30T11:07:24.009Z,101023.03
2022-07-30T11:10:09.384Z,101023.06
2022-07-30T11:12:44.123Z,101012.22
2022-07-30T11:15:18.683Z,101023.06
2022-07-30T11:18:16.299Z,101014.16
2022-07-30T11:20:48.803Z,101021.59
2022-07-30T11:23:19.586Z,101018.03
2022-07-30T11:25:51.913Z,101014.09
2022-07-30T11:28:45.432Z,101020.53
2022-07-30T11:31:55.609Z,101017.34
2022-07-30T11:34:25.919Z,101016.56
2022-07-30T11:37:18.568Z,101012.16
2022-07-30T11:40:28.300Z,101018.69
2022-07-30T11:43:35.650Z,101011.31
2022-07-30T11:46:29.639Z,101015.97
2022-07-30T11:49:08.848Z,101016.47
2022-07-30T11:51:44.644Z,101016.06
2022-07-30T11:54:12.779Z,101011.03
2022-07-30T11:56:49.494Z,101009.84
2022-07-30T11:59:17.406Z,101002.22
2022-07-30T12:01:55.981Z,100995.03
2022-07-30T12:04:24.494Z,100997.13
2022-07-30T12:06:51.673Z,101000.97
2022-07-30T12:09:27.263Z,100984.88
2022-07-30T12:11:55.902Z,100992.53
2022-07-30T12:14:23.122Z,100991.03
2022-07-30T12:16:54.414Z,100981.09
2022-07-30T12:19:24.617Z,100994.03
2022-07-30T12:21:53.676Z,100989.97
2022-07-30T12:24:26.706Z,100981.28
2022-07-30T12:27:05.706Z,100977.88
2022-07-30T12:29:36.629Z,100982.31
2022-07-30T12:32:04.240Z,100983.81
2022-07-30T12:34:58.304Z,100975.09
2022-07-30T12:37:25.839Z,100975.50
2022-07-30T12:40:16.031Z,100979.50
2022-07-30T12:42:53.269Z,100976.53
2022-07-30T12:45:54.192Z,100970.31
2022-07-30T12:48:22.208Z,100973.88
2022-07-30T12:51:06.068Z,100969.34
2022-07-30T12:53:35.665Z,100960.84
2022-07-30T12:56:13.238Z,100957.41
2022-07-30T12:58:41.675Z,100952.50
2022-07-30T13:01:11.750Z,100944.84
2022-07-30T13:03:39.910Z,100949.44
2022-07-30T13:06:14.036Z,100950.88
2022-07-30T13:08:56.217Z,100942.78
2022-07-30T13:11:38.508Z,100943.38
2022-07-30T13:14:05.926Z,100937.38
2022-07-30T13:16:35.558Z,100932.00
2022-07-30T13:19:04.844Z,100932.91
2022-07-30T13:21:31.842Z,100929.53
2022-07-30T13:24:00.127Z,100931.38
2022-07-30T13:26:29.474Z,100930.91
2022-07-30T13:29:01.731Z,100925.31
2022-07-30T13:31:29.334Z,100923.81
2022-07-30T13:34:09.769Z,100931.22
2022-07-30T13:36:36.935Z,100925.38
2022-07-30T13:39:04.417Z,100917.41
2022-07-30T13:41:31.546Z,100922.44
2022-07-30T13:43:58.614Z,100909.84
2022-07-30T13:46:25.609Z,100918.09
2022-07-30T13:48:55.147Z,100910.75
2022-07-30T13:51:22.237Z,100905.47
2022-07-30T13:53:49.251Z,100909.25
2022-07-30T13:56:16.855Z,100898.19
2022-07-30T13:58:48.107Z,100891.94
2022-07-30T14:01:17.587Z,100898.63
2022-07-30T14:03:50.047Z,100885.53
2022-07-30T14:06:20.528Z,100890.69
2022-07-30T14:08:48.371Z,100883.03
2022-07-30T14:11:16.255Z,100891.22
2022-07-30T14:13:53.276Z,100889.88
2022-07-30T14:16:43.445Z,100886.84
2022-07-30T14:19:07.293Z,100888.09
2022-07-30T14:21:34.629Z,100874.06
2022-07-30T14:24:01.581Z,100870.69
2022-07-30T14:26:33.424Z,100866.72
2022-07-30T14:29:05.899Z,100870.84
2022-07-30T14:31:33.898Z,100871.03
2022-07-30T14:34:01.481Z,100860.44
2022-07-30T14:36:30.102Z,100865.19
2022-07-30T14:38:58.632Z,100867.97
2022-07-30T14:41:27.094Z,100867.75
2022-07-30T14:43:54.186Z,100871.91
2022-07-30T14:46:21.282Z,100871.69
2022-07-30T14:48:49.358Z,100874.81
2022-07-30T14:51:29.021Z,100871.78
2022-07-30T14:53:58.398Z,100865.53
2022-07-30T14:56:25.436Z,100875.66
2022-07-30T14:58:53.415Z,100862.28
2022-07-30T15:01:42.295Z,100865.19
2022-07-30T15:04:10.624Z,100866.50
2022-07-30T15:06:37.855Z,100857.34
2022-07-30T15:09:05.009Z,100858.03
2022-07-30T15:11:45.053Z,100853.81
2022-07-30T15:14:20.522Z,100858.88
2022-07-30T15:16:48.055Z,100844.28
2022-07-30T15:19:15.541Z,100844.75
2022-07-30T15:21:44.894Z,100843.78
2022-07-30T15:24:12.090Z,100842.78
2022-07-30T15:26:39.384Z,100844.56
2022-07-30T15:29:10.348Z,100840.50
2022-07-30T15:31:40.027Z,100849.59
2022-07-30T15:34:10.992Z,100840.69
2022-07-30T15:36:39.109Z,100834.91
2022-07-30T15:39:08.885Z,100835.63
2022-07-30T15:41:37.602Z,100846.31
2022-07-30T15:44:05.069Z,100836.09
2022-07-30T15:46:32.292Z,100838.59
2022-07-30T15:48:59.522Z,100834.97
2022-07-30T15:51:32.774Z,100835.81
2022-07-30T15:53:59.937Z,100831.13
2022-07-30T15:56:28.339Z,100830.88
2022-07-30T15:58:57.707Z,100831.34
2022-07-30T16:01:25.095Z,100829.66
2022-07-30T16:03:54.749Z,100832.22
2022-07-30T16:06:22.335Z,100826.06
2022-07-30T16:08:49.364Z,100828.19
2022-07-30T16:11:16.563Z,100826.53
2022-07-30T16:13:43.731Z,100819.91
2022-07-30T16:16:10.833Z,100824.59
2022-07-30T16:18:37.934Z,100828.06
2022-07-30T16:21:06.082Z,100828.06
2022-07-30T16:23:36.246Z,100827.22
2022-07-30T16:26:04.862Z,100822.16
2022-07-30T16:28:32.475Z,100826.84
2022-07-30T16:30:59.807Z,100822.38
2022-07-30T16:33:27.349Z,100822.38
2022-07-30T16:35:54.858Z,100822.84
2022-07-30T16:38:23.423Z,100822.47
2022-07-30T16:40:50.590Z,100822.72
2022-07-30T16:43:19.828Z,100818.50
2022-07-30T16:45:48.226Z,100819.53
2022-07-30T16:48:15.573Z,100819.75
2022-07-30T16:50:42.827Z,100812.78
2022-07-30T16:53:14.118Z,100811.94
2022-07-30T16:55:45.261Z,100814.09
2022-07-30T16:58:13.123Z,100812.38
2022-07-30T17:00:40.899Z,100813.94
2022-07-30T17:03:08.183Z,100807.56
2022-07-30T17:05:35.777Z,100805.25
2022-07-30T17:08:05.981Z,100812.94
2022-07-30T17:10:35.703Z,100814.84
2022-07-30T17:13:02.927Z,100821.47
2022-07-30T17:15:32.512Z,100814.22
2022-07-30T17:18:01.654Z,100816.16
2022-07-30T17:20:30.928Z,100818.31
2022-07-30T17:22:58.251Z,100822.38
2022-07-30T17:25:29.482Z,100830.66
2022-07-30T17:27:58.633Z,100827.28
2022-07-30T17:30:28.696Z,100826.69
2022-07-30T17:32:56.827Z,100820.53
2022-07-30T17:35:31.274Z,100822.66
2022-07-30T17:38:01.273Z,100827.81
2022-07-30T17:40:31.368Z,100823.63
2022-07-30T17:43:05.619Z,100816.69
2022-07-30T17:45:35.716Z,100815.63
2022-07-30T17:48:04.732Z,100824.13
2022-07-30T17:50:33.515Z,100829.25
2022-07-30T17:53:04.070Z,100821.63
2022-07-30T17:55:35.160Z,100825.09
2022-07-30T17:58:04.707Z,100828.50
2022-07-30T18:00:34.653Z,100831.13
2022-07-30T18:03:02.430Z,100835.63
2022-07-30T18:05:29.526Z,100835.44
2022-07-30T18:07:56.551Z,100841.66
2022-07-30T18:10:23.653Z,100840.03
2022-07-30T18:12:50.654Z,100844.53
2022-07-30T18:15:19.034Z,100849.84
2022-07-30T18:17:46.270Z,100852.41
2022-07-30T18:20:17.033Z,100863.50
2022-07-30T18:22:44.812Z,100855.88
2022-07-30T18:25:18.522Z,100855.91
2022-07-30T18:27:47.808Z,100865.91
2022-07-30T18:30:15.456Z,100858.75
2022-07-30T18:32:43.063Z,100860.47
2022-07-30T18:35:14.071Z,100867.94
2022-07-30T18:37:45.975Z,100872.66
2022-07-30T18:40:18.557Z,100875.63
2022-07-30T18:42:49.759Z,100872.03
2022-07-30T18:45:16.954Z,100870.16
2022-07-30T18:47:46.570Z,100865.50
2022-07-30T18:50:16.221Z,100877.44
2022-07-30T18:52:43.758Z,100882.97
2022-07-30T18:55:12.378Z,100883.81
2022-07-30T18:57:41.478Z,100886.59
2022-07-30T19:00:34.394Z,100882.34
2022-07-30T19:03:00.283Z,100882.34
2022-07-30T19:05:27.939Z,100879.38
2022-07-30T19:07:58.092Z,100888.06
2022-07-30T19:10:27.259Z,100899.75
2022-07-30T19:12:55.379Z,100892.09
2022-07-30T19:15:22.802Z,100898.25
2022-07-30T19:17:51.326Z,100904.59
2022-07-30T19:20:21.338Z,100915.41
2022-07-30T19:22:49.327Z,100918.16
2022-07-30T19:25:21.028Z,100928.94
2022-07-30T19:27:48.020Z,100933.16
2022-07-30T19:30:14.985Z,100926.59
2022-07-30T19:32:42.097Z,100932.91
2022-07-30T19:35:17.296Z,100935.44
2022-07-30T19:37:44.352Z,100933.75
2022-07-30T19:40:12.983Z,100942.41
2022-07-30T19:42:41.502Z,100939.44
2022-07-30T19:45:12.140Z,100948.53
2022-07-30T19:47:42.243Z,100948.28
2022-07-30T19:50:11.462Z,100948.25
2022-07-30T19:52:40.114Z,100950.34
2022-07-30T19:55:30.897Z,100954.78
2022-07-30T19:58:16.038Z,100958.53
2022-07-30T20:00:50.254Z,100958.50
2022-07-30T20:03:25.568Z,100970.13
2022-07-30T20:05:57.049Z,100962.69
2022-07-30T20:08:26.403Z,100973.41
2022-07-30T20:10:53.612Z,100970.22
2022-07-30T20:13:44.929Z,100968.09
2022-07-30T20:16:15.619Z,100974.19
2022-07-30T20:18:44.313Z,100982.66
2022-07-30T20:21:15.383Z,100978.81
2022-07-30T20:23:44.863Z,100980.91
2022-07-30T20:26:14.109Z,100983.00
2022-07-30T20:28:52.360Z,100981.50
2022-07-30T20:31:20.575Z,100984.63
2022-07-30T20:33:49.488Z,100990.72
2022-07-30T20:36:18.241Z,100989.22
2022-07-30T20:38:47.151Z,100997.22
2022-07-30T20:41:14.824Z,101003.13
2022-07-30T20:43:51.440Z,100993.56
2022-07-30T20:46:29.553Z,100988.47
2022-07-30T20:48:56.749Z,100990.56
2022-07-30T20:54:11.293Z,100998.09
2022-07-30T20:56:38.457Z,100993.22
2022-07-30T20:59:06.495Z,100992.56
2022-07-30T21:01:33.755Z,100989.13
2022-07-30T21:04:04.789Z,101001.38
2022-07-30T21:06:31.799Z,101009.16
2022-07-30T21:09:01.823Z,101004.06
2022-07-30T21:11:28.900Z,101013.34
2022-07-30T21:13:55.897Z,101008.44
2022-07-30T21:16:23.749Z,101008.97
2022-07-30T21:18:50.880Z,101008.34
2022-07-30T21:21:29.282Z,101012.53
2022-07-30T21:24:06.502Z,101009.50
2022-07-30T21:26:42.495Z,101010.69
2022-07-30T21:29:10.427Z,101010.69
2022-07-30T21:32:02.328Z,101002.84
2022-07-30T21:34:27.414Z,100999.84
2022-07-30T21:36:56.138Z,101007.41
2022-07-30T21:39:28.730Z,101009.47
2022-07-30T21:41:57.249Z,101015.19
2022-07-30T21:44:24.577Z,101017.25
2022-07-30T21:46:52.696Z,101025.69
2022-07-30T21:49:21.071Z,101027.59
2022-07-30T21:51:48.483Z,101029.00
2022-07-30T21:54:28.418Z,101025.78
2022-07-30T21:56:58.298Z,101025.78
2022-07-30T21:59:27.660Z,101015.59
2022-07-30T22:01:56.258Z,101026.75
2022-07-30T22:04:23.466Z,101026.09
2022-07-30T22:06:51.528Z,101028.38
2022-07-30T22:09:33.906Z,101035.03
2022-07-30T22:12:06.312Z,101040.91
2022-07-30T22:14:36.451Z,101051.78
2022-07-30T22:17:04.306Z,101055.31
2022-07-30T22:19:32.109Z,101057.94
2022-07-30T22:22:02.005Z,101058.72
2022-07-30T22:24:46.875Z,101062.84
2022-07-30T22:27:14.811Z,101058.63
2022-07-30T22:29:43.522Z,101056.88
2022-07-30T22:32:11.970Z,101060.84
2022-07-30T22:34:59.395Z,101057.84
2022-07-30T22:37:27.277Z,101059.06
2022-07-30T22:40:02.299Z,101054.63
2022-07-30T22:42:29.568Z,101053.78
2022-07-30T22:44:59.014Z,101047.25
2022-07-30T22:47:50.946Z,101048.47
2022-07-30T22:50:15.021Z,101052.44
2022-07-30T22:52:57.421Z,101053.47
2022-07-30T22:55:30.133Z,101050.94
2022-07-30T22:57:59.423Z,101053.84
2022-07-30T23:00:28.423Z,101049.59
2022-07-30T23:02:57.239Z,101051.69
2022-07-30T23:05:25.140Z,101059.19
2022-07-30T23:07:52.403Z,101056.16
2022-07-30T23:10:20.628Z,101053.13
2022-07-30T23:12:18.627Z,100990.31
2022-07-30T23:12:54.039Z,101066.34
2022-07-30T23:15:21.621Z,101073.63
2022-07-30T23:17:48.818Z,101076.97
2022-07-30T23:20:20.447Z,101089.66
2022-07-30T23:22:49.111Z,101080.38
2022-07-30T23:25:16.210Z,101077.34
2022-07-30T23:27:43.620Z,101090.47
2022-07-30T23:30:12.146Z,101096.28
2022-07-30T23:32:40.156Z,101093.06
2022-07-30T23:35:08.998Z,101099.41
2022-07-30T23:37:48.981Z,101099.72
2022-07-30T23:40:19.131Z,101100.78
2022-07-30T23:42:50.986Z,101102.03
2022-07-30T23:45:19.042Z,101100.78
2022-07-30T23:48:00.737Z,101091.59
2022-07-30T23:50:31.464Z,101096.44
2022-07-30T23:53:25.311Z,101094.72
2022-07-30T23:55:51.431Z,101086.22
2022-07-30T23:58:40.705Z,101093.56
